createdAt,value
2018-02-11T00:00:33.700Z,13.17
2018-02-11T00:03:01.750Z,12.40
2018-02-11T00:05:29.813Z,12.17
2018-02-11T00:07:57.905Z,14.10
2018-02-11T00:10:25.965Z,13.77
2018-02-11T00:12:54.029Z,10.73
2018-02-11T00:15:22.858Z,11.27
2018-02-11T00:17:50.946Z,12.67
2018-02-11T00:20:18.989Z,11.00
2018-02-11T00:22:47.105Z,11.45
2018-02-11T00:25:15.187Z,12.13
2018-02-11T00:27:43.261Z,12.20
2018-02-11T00:30:11.341Z,11.97
2018-02-11T00:32:39.408Z,11.13
2018-02-11T00:35:08.010Z,12.30
2018-02-11T00:37:41.670Z,12.07
2018-02-11T00:40:10.484Z,13.60
2018-02-11T00:42:38.558Z,11.90
2018-02-11T00:45:06.630Z,12.73
2018-02-11T00:47:34.737Z,12.00
2018-02-11T00:50:02.793Z,12.60
2018-02-11T00:52:31.293Z,12.80
2018-02-11T00:54:59.470Z,12.87
2018-02-11T00:57:27.641Z,11.50
2018-02-11T00:59:55.725Z,10.30
2018-02-11T01:02:23.796Z,11.20
2018-02-11T01:04:51.857Z,11.83
2018-02-11T01:07:20.288Z,12.37
2018-02-11T01:09:48.438Z,11.27
2018-02-11T01:12:16.513Z,11.80
2018-02-11T01:14:45.138Z,11.33
2018-02-11T01:17:13.997Z,10.90
2018-02-11T01:19:42.071Z,11.03
2018-02-11T01:22:10.157Z,11.67
2018-02-11T01:24:38.435Z,12.40
2018-02-11T01:27:06.591Z,11.40
2018-02-11T01:29:34.689Z,10.53
2018-02-11T01:32:02.753Z,10.57
2018-02-11T01:34:30.855Z,13.33
2018-02-11T01:36:59.685Z,11.20
2018-02-11T01:39:28.521Z,10.50
2018-02-11T01:41:56.578Z,10.27
2018-02-11T01:44:24.647Z,10.45
2018-02-11T01:46:52.757Z,10.02
2018-02-11T01:49:20.943Z,10.33
2018-02-11T01:51:49.006Z,10.20
2018-02-11T01:54:17.102Z,10.73
2018-02-11T01:56:45.167Z,9.43
2018-02-11T01:59:13.341Z,10.95
2018-02-11T02:01:41.412Z,10.03
2018-02-11T02:04:09.485Z,10.53
2018-02-11T02:06:37.565Z,11.80
2018-02-11T02:09:05.636Z,11.47
2018-02-11T02:11:33.684Z,10.93
2018-02-11T02:14:01.741Z,9.40
2018-02-11T02:16:30.557Z,10.17
2018-02-11T02:18:58.662Z,10.53
2018-02-11T02:21:26.746Z,11.43
2018-02-11T02:23:54.831Z,9.90
2018-02-11T02:26:22.906Z,10.30
2018-02-11T02:28:51.522Z,10.60
2018-02-11T02:31:20.373Z,10.70
2018-02-11T02:33:48.442Z,8.77
2018-02-11T02:36:16.538Z,9.60
2018-02-11T02:38:44.585Z,10.00
2018-02-11T02:41:12.658Z,9.20
2018-02-11T02:43:40.763Z,9.80
2018-02-11T02:46:09.408Z,9.90
2018-02-11T02:48:37.460Z,11.10
2018-02-11T02:51:05.598Z,10.13
2018-02-11T02:53:33.645Z,8.37
2018-02-11T02:56:01.762Z,10.27
2018-02-11T02:58:29.826Z,9.60
2018-02-11T03:00:57.902Z,8.57
2018-02-11T03:03:25.994Z,9.87
2018-02-11T03:05:54.058Z,9.00
2018-02-11T03:08:22.141Z,10.00
2018-02-11T03:10:50.216Z,9.83
2018-02-11T03:13:18.280Z,9.67
2018-02-11T03:15:46.346Z,9.10
2018-02-11T03:18:14.402Z,8.85
2018-02-11T03:20:43.234Z,8.20
2018-02-11T03:23:11.296Z,9.00
2018-02-11T03:25:39.805Z,9.75
2018-02-11T03:28:07.865Z,9.07
2018-02-11T03:30:35.938Z,10.07
2018-02-11T03:33:04.025Z,10.43
2018-02-11T03:35:32.100Z,10.10
2018-02-11T03:38:00.166Z,9.63
2018-02-11T03:40:28.258Z,9.37
2018-02-11T03:42:56.351Z,10.77
2018-02-11T03:45:24.406Z,9.90
2018-02-11T03:47:52.485Z,8.60
2018-02-11T03:50:20.557Z,9.07
2018-02-11T03:52:48.633Z,8.67
2018-02-11T03:55:16.713Z,10.00
2018-02-11T03:57:44.786Z,9.43
2018-02-11T04:00:12.870Z,9.63
2018-02-11T04:02:40.938Z,9.43
2018-02-11T04:05:10.175Z,9.70
2018-02-11T04:07:38.226Z,9.73
2018-02-11T04:10:06.290Z,8.03
2018-02-11T04:12:34.360Z,9.43
2018-02-11T04:15:02.454Z,8.40
2018-02-11T04:17:30.595Z,8.30
2018-02-11T04:19:58.710Z,9.27
2018-02-11T04:22:26.788Z,9.23
2018-02-11T04:24:54.866Z,8.17
2018-02-11T04:27:22.934Z,8.30
2018-02-11T04:29:50.985Z,9.00
2018-02-11T04:32:19.094Z,8.00
2018-02-11T04:34:47.269Z,8.90
2018-02-11T04:37:15.345Z,9.35
2018-02-11T04:39:43.405Z,8.90
2018-02-11T04:42:11.461Z,8.83
2018-02-11T04:44:40.703Z,8.70
2018-02-11T04:47:08.730Z,8.73
2018-02-11T04:49:36.846Z,8.43
2018-02-11T04:52:04.925Z,8.43
2018-02-11T04:54:32.998Z,7.53
2018-02-11T04:57:01.069Z,9.07
2018-02-11T04:59:29.147Z,7.73
2018-02-11T05:01:57.194Z,8.50
2018-02-11T05:04:25.252Z,9.47
2018-02-11T05:06:54.062Z,8.40
2018-02-11T05:09:22.121Z,9.70
2018-02-11T05:11:50.968Z,9.90
2018-02-11T05:14:19.137Z,9.03
2018-02-11T05:16:47.190Z,10.00
2018-02-11T05:19:15.249Z,9.00
2018-02-11T05:21:43.310Z,9.57
2018-02-11T05:24:12.150Z,9.30
2018-02-11T05:26:41.078Z,9.32
2018-02-11T05:29:09.242Z,8.63
2018-02-11T05:31:37.324Z,9.03
2018-02-11T05:34:05.392Z,10.73
2018-02-11T05:36:33.478Z,9.50
2018-02-11T05:39:01.562Z,8.97
2018-02-11T05:41:31.125Z,9.87
2018-02-11T05:43:59.179Z,9.95
2018-02-11T05:46:28.014Z,9.07
2018-02-11T05:48:56.101Z,9.00
2018-02-11T05:51:24.162Z,9.27
2018-02-11T05:53:52.213Z,9.10
2018-02-11T05:56:20.321Z,7.93
2018-02-11T05:58:48.379Z,9.77
2018-02-11T06:01:16.446Z,8.06
2018-02-11T06:03:44.565Z,10.50
2018-02-11T06:06:12.617Z,9.90
2018-02-11T06:08:41.532Z,10.35
2018-02-11T06:11:09.605Z,9.00
2018-02-11T06:13:37.653Z,11.50
2018-02-11T06:16:05.726Z,8.25
2018-02-11T06:18:33.773Z,9.40
2018-02-11T06:21:02.618Z,9.83
2018-02-11T06:23:30.703Z,10.30
2018-02-11T06:25:58.735Z,9.20
2018-02-11T06:28:26.787Z,9.17
2018-02-11T06:30:54.937Z,8.43
2018-02-11T06:33:23.064Z,8.57
2018-02-11T06:35:51.090Z,9.70
2018-02-11T06:38:19.160Z,9.30
2018-02-11T06:40:47.238Z,10.07
2018-02-11T06:43:15.305Z,7.90
2018-02-11T06:45:43.356Z,10.80
2018-02-11T06:48:12.010Z,8.52
2018-02-11T06:50:40.162Z,9.50
2018-02-11T06:53:08.221Z,8.67
2018-02-11T06:55:36.309Z,9.63
2018-02-11T06:58:04.378Z,25.43
2018-02-11T07:00:33.370Z,14.00
2018-02-11T07:03:01.442Z,10.50
2018-02-11T07:05:29.489Z,9.40
2018-02-11T07:07:57.677Z,9.20
2018-02-11T07:10:25.718Z,9.70
2018-02-11T07:12:55.289Z,10.30
2018-02-11T07:15:23.385Z,8.80
2018-02-11T07:17:51.550Z,9.97
2018-02-11T07:20:19.665Z,9.87
2018-02-11T07:22:47.733Z,10.40
2018-02-11T07:25:15.808Z,7.97
2018-02-11T07:27:43.867Z,9.80
2018-02-11T07:30:12.297Z,10.05
2018-02-11T07:32:40.425Z,8.25
2018-02-11T07:35:08.494Z,14.60
2018-02-11T07:37:36.764Z,8.80
2018-02-11T07:40:04.824Z,9.23
2018-02-11T07:42:32.934Z,8.80
2018-02-11T07:45:01.005Z,9.53
2018-02-11T07:47:29.043Z,8.88
2018-02-11T07:49:57.106Z,10.57
2018-02-11T07:52:25.957Z,8.20
2018-02-11T07:54:54.026Z,9.35
2018-02-11T07:57:22.114Z,8.70
2018-02-11T07:59:50.170Z,10.87
2018-02-11T08:02:18.273Z,8.60
2018-02-11T08:04:46.331Z,8.97
2018-02-11T08:07:15.245Z,9.27
2018-02-11T08:09:46.378Z,8.97
2018-02-11T08:12:15.270Z,9.60
2018-02-11T08:14:43.345Z,9.17
2018-02-11T08:17:11.440Z,8.40
2018-02-11T08:19:39.489Z,8.83
2018-02-11T08:22:07.543Z,8.77
2018-02-11T08:24:35.671Z,9.77
2018-02-11T08:27:03.740Z,10.43
2018-02-11T08:29:31.793Z,9.80
2018-02-11T08:31:59.881Z,9.20
2018-02-11T08:34:27.958Z,10.33
2018-02-11T08:36:56.034Z,11.70
2018-02-11T08:39:24.230Z,12.63
2018-02-11T08:41:52.273Z,11.03
2018-02-11T08:44:21.193Z,8.68
2018-02-11T08:46:49.261Z,9.57
2018-02-11T08:49:17.327Z,11.47
2018-02-11T08:51:45.709Z,10.00
2018-02-11T08:54:13.766Z,9.60
2018-02-11T08:56:41.817Z,8.77
2018-02-11T08:59:10.665Z,8.90
2018-02-11T09:01:38.751Z,9.23
2018-02-11T09:04:06.857Z,9.80
2018-02-11T09:06:36.535Z,11.27
2018-02-11T09:09:04.593Z,12.45
2018-02-11T09:11:32.707Z,10.55
2018-02-11T09:14:01.517Z,10.55
2018-02-11T09:16:30.403Z,10.37
2018-02-11T09:18:58.449Z,10.23
2018-02-11T09:21:26.625Z,10.37
2018-02-11T09:23:54.696Z,10.47
2018-02-11T09:26:22.786Z,10.30
2018-02-11T09:28:50.821Z,10.23
2018-02-11T09:31:18.898Z,10.88
2018-02-11T09:33:46.961Z,11.23
2018-02-11T09:36:15.933Z,10.43
2018-02-11T09:38:43.989Z,10.70
2018-02-11T09:41:12.059Z,10.73
2018-02-11T09:43:40.131Z,11.07
2018-02-11T09:46:08.208Z,12.73
2018-02-11T09:48:36.257Z,10.80
2018-02-11T09:51:04.330Z,12.13
2018-02-11T09:53:32.402Z,11.20
2018-02-11T09:56:00.476Z,12.30
2018-02-11T09:58:28.539Z,9.67
2018-02-11T10:00:57.370Z,11.23
2018-02-11T10:03:25.454Z,11.27
2018-02-11T10:05:53.529Z,10.63
2018-02-11T10:08:21.594Z,10.73
2018-02-11T10:10:49.673Z,10.70
2018-02-11T10:13:17.770Z,13.50
2018-02-11T10:15:46.370Z,11.93
2018-02-11T10:18:14.575Z,9.50
2018-02-11T10:20:42.598Z,10.50
2018-02-11T10:23:10.713Z,11.33
2018-02-11T10:25:38.855Z,11.00
2018-02-11T10:28:06.914Z,10.53
2018-02-11T10:30:34.978Z,12.90
2018-02-11T10:33:03.038Z,11.13
2018-02-11T10:35:31.865Z,11.73
2018-02-11T10:37:59.922Z,11.90
2018-02-11T10:40:28.053Z,11.80
2018-02-11T10:42:56.223Z,10.97
2018-02-11T10:45:24.285Z,11.80
2018-02-11T10:47:52.374Z,11.90
2018-02-11T10:50:20.426Z,10.57
2018-02-11T10:52:48.498Z,10.90
2018-02-11T10:55:16.809Z,11.68
2018-02-11T10:57:44.872Z,11.70
2018-02-11T11:00:12.941Z,8.73
2018-02-11T11:02:41.030Z,12.87
2018-02-11T11:05:09.112Z,11.20
2018-02-11T11:07:37.166Z,10.30
2018-02-11T11:10:05.228Z,11.07
2018-02-11T11:12:33.333Z,11.17
2018-02-11T11:15:01.387Z,9.73
2018-02-11T11:17:29.494Z,8.70
2018-02-11T11:19:57.547Z,10.20
2018-02-11T11:22:25.607Z,8.97
2018-02-11T11:24:53.725Z,10.10
2018-02-11T11:27:21.793Z,10.57
2018-02-11T11:29:49.859Z,10.07
2018-02-11T11:32:17.933Z,10.60
2018-02-11T11:34:47.126Z,10.03
2018-02-11T11:37:15.182Z,7.93
2018-02-11T11:39:43.241Z,10.87
2018-02-11T11:42:12.094Z,9.90
2018-02-11T11:44:40.149Z,9.13
2018-02-11T11:47:08.209Z,9.13
2018-02-11T11:49:36.326Z,10.35
2018-02-11T11:52:04.521Z,10.52
2018-02-11T11:54:32.571Z,8.93
2018-02-11T11:57:00.670Z,10.60
2018-02-11T11:59:28.731Z,10.10
2018-02-11T12:01:56.822Z,8.30
2018-02-11T12:04:25.640Z,8.87
2018-02-11T12:06:54.848Z,9.43
2018-02-11T12:09:23.671Z,7.83
2018-02-11T12:11:51.733Z,9.38
2018-02-11T12:14:19.842Z,9.10
2018-02-11T12:16:47.910Z,10.30
2018-02-11T12:19:15.962Z,7.13
2018-02-11T12:21:44.047Z,9.83
2018-02-11T12:24:12.895Z,6.80
2018-02-11T12:26:40.954Z,7.20
2018-02-11T12:29:09.007Z,7.00
2018-02-11T12:31:37.108Z,6.57
2018-02-11T12:34:05.154Z,7.40
2018-02-11T12:36:33.214Z,6.60
2018-02-11T12:39:01.273Z,7.77
2018-02-11T12:41:30.098Z,6.90
2018-02-11T12:43:58.155Z,6.53
2018-02-11T12:46:26.278Z,7.50
2018-02-11T12:48:55.057Z,7.70
2018-02-11T12:51:24.050Z,7.20
2018-02-11T12:53:52.098Z,7.22
2018-02-11T12:56:20.213Z,6.30
2018-02-11T12:58:48.280Z,7.90
2018-02-11T13:01:16.374Z,7.70
2018-02-11T13:03:44.447Z,7.40
2018-02-11T13:06:12.510Z,7.53
2018-02-11T13:08:40.569Z,7.50
2018-02-11T13:11:08.670Z,8.03
2018-02-11T13:13:36.725Z,7.77
2018-02-11T13:16:04.782Z,8.30
2018-02-11T13:18:32.897Z,8.43
2018-02-11T13:21:00.989Z,8.47
2018-02-11T13:23:29.873Z,7.30
2018-02-11T13:25:57.937Z,6.90
2018-02-11T13:28:26.030Z,7.40
2018-02-11T13:30:54.099Z,7.73
2018-02-11T13:33:22.153Z,6.87
2018-02-11T13:35:50.255Z,7.57
2018-02-11T13:38:18.334Z,8.45
2018-02-11T13:40:46.387Z,8.10
2018-02-11T13:43:14.478Z,7.50
2018-02-11T13:45:42.523Z,7.87
2018-02-11T13:48:10.595Z,8.50
2018-02-11T13:50:38.652Z,8.00
2018-02-11T13:53:07.483Z,7.70
2018-02-11T13:55:35.589Z,7.40
2018-02-11T13:58:03.657Z,8.73
2018-02-11T14:00:31.729Z,9.40
2018-02-11T14:02:59.796Z,9.07
2018-02-11T14:05:27.861Z,7.30
2018-02-11T14:07:55.928Z,8.30
2018-02-11T14:10:24.003Z,7.00
2018-02-11T14:12:52.061Z,8.23
2018-02-11T14:15:20.883Z,6.87
2018-02-11T14:17:48.955Z,8.82
2018-02-11T14:20:17.000Z,7.07
2018-02-11T14:22:45.830Z,7.17
2018-02-11T14:25:13.877Z,7.87
2018-02-11T14:27:41.963Z,7.00
2018-02-11T14:30:10.779Z,8.00
2018-02-11T14:32:38.865Z,8.93
2018-02-11T14:35:06.937Z,8.82
2018-02-11T14:37:35.012Z,8.18
2018-02-11T14:40:03.797Z,8.93
2018-02-11T14:42:31.907Z,8.70
2018-02-11T14:44:59.996Z,8.05
2018-02-11T14:47:28.063Z,9.97
2018-02-11T14:49:56.132Z,9.10
2018-02-11T14:52:24.315Z,10.27
2018-02-11T14:54:52.368Z,9.30
2018-02-11T14:57:20.441Z,8.80
2018-02-11T14:59:50.042Z,10.18
2018-02-11T15:02:19.227Z,9.13
2018-02-11T15:04:47.349Z,10.48
2018-02-11T15:07:15.405Z,9.87
2018-02-11T15:09:43.461Z,9.77
2018-02-11T15:12:11.539Z,9.83
2018-02-11T15:14:39.614Z,10.27
2018-02-11T15:17:08.442Z,9.97
2018-02-11T15:19:36.509Z,10.93
2018-02-11T15:22:04.561Z,9.80
2018-02-11T15:24:32.625Z,10.87
2018-02-11T15:27:00.682Z,9.77
2018-02-11T15:29:29.551Z,11.27
2018-02-11T15:31:57.620Z,11.85
2018-02-11T15:34:25.692Z,11.20
2018-02-11T15:36:53.737Z,11.63
2018-02-11T15:39:21.810Z,8.90
2018-02-11T15:41:49.849Z,8.23
2018-02-11T15:44:17.989Z,8.33
2018-02-11T15:46:46.049Z,11.00
2018-02-11T15:49:14.117Z,11.53
2018-02-11T15:51:42.287Z,9.17
2018-02-11T15:54:11.125Z,7.90
2018-02-11T15:56:39.202Z,8.37
2018-02-11T15:59:07.370Z,8.40
2018-02-11T16:01:35.456Z,8.68
2018-02-11T16:04:03.538Z,8.50
2018-02-11T16:06:31.624Z,7.90
2018-02-11T16:08:59.793Z,7.87
2018-02-11T16:11:27.853Z,7.77
2018-02-11T16:13:55.984Z,10.30
2018-02-11T16:16:24.850Z,8.95
2018-02-11T16:18:52.931Z,9.07
2018-02-11T16:21:21.000Z,8.30
2018-02-11T16:23:50.069Z,8.98
2018-02-11T16:26:18.157Z,9.25
2018-02-11T16:28:46.205Z,10.07
2018-02-11T16:31:14.278Z,8.30
2018-02-11T16:33:42.353Z,8.90
2018-02-11T16:36:11.172Z,9.20
2018-02-11T16:38:39.270Z,9.70
2018-02-11T16:41:07.329Z,10.10
2018-02-11T16:43:35.419Z,9.37
2018-02-11T16:46:03.470Z,9.90
2018-02-11T16:48:31.532Z,8.40
2018-02-11T16:50:59.985Z,10.20
2018-02-11T16:53:28.827Z,9.47
2018-02-11T16:55:56.873Z,9.93
2018-02-11T16:58:24.952Z,8.90
2018-02-11T17:00:53.001Z,9.57
2018-02-11T17:03:21.875Z,10.00
2018-02-11T17:05:51.336Z,8.95
2018-02-11T17:08:20.518Z,8.87
2018-02-11T17:10:50.474Z,9.80
2018-02-11T17:13:18.575Z,9.93
2018-02-11T17:15:46.741Z,9.32
2018-02-11T17:18:14.808Z,8.50
2018-02-11T17:20:42.893Z,8.43
2018-02-11T17:23:10.964Z,8.03
2018-02-11T17:25:39.052Z,8.90
2018-02-11T17:28:07.128Z,7.83
2018-02-11T17:30:35.885Z,7.70
2018-02-11T17:33:03.960Z,8.10
2018-02-11T17:35:32.010Z,8.57
2018-02-11T17:38:00.834Z,6.70
2018-02-11T17:40:28.902Z,7.80
2018-02-11T17:42:57.258Z,9.63
2018-02-11T17:45:25.318Z,8.38
2018-02-11T17:47:53.360Z,8.30
2018-02-11T17:50:21.453Z,7.50
2018-02-11T17:52:49.537Z,8.60
2018-02-11T17:55:17.724Z,7.20
2018-02-11T17:57:45.889Z,7.80
2018-02-11T18:00:13.952Z,8.20
2018-02-11T18:02:42.203Z,8.35
2018-02-11T18:05:10.281Z,8.00
2018-02-11T18:07:38.362Z,8.47
2018-02-11T18:10:06.450Z,9.38
2018-02-11T18:12:34.514Z,9.90
2018-02-11T18:17:37.700Z,10.07
2018-02-11T18:20:06.539Z,7.10
2018-02-11T18:22:34.630Z,8.10
2018-02-11T18:25:02.790Z,7.70
2018-02-11T18:27:31.621Z,6.77
2018-02-11T18:29:59.677Z,7.00
2018-02-11T18:32:27.762Z,7.20
2018-02-11T18:34:55.837Z,6.35
2018-02-11T18:37:24.656Z,6.40
2018-02-11T18:39:53.493Z,6.77
2018-02-11T18:42:21.610Z,6.27
2018-02-11T18:44:51.584Z,7.27
2018-02-11T18:47:19.681Z,7.20
2018-02-11T18:49:47.749Z,6.60
2018-02-11T18:52:15.821Z,8.47
2018-02-11T18:54:44.746Z,7.60
2018-02-11T18:57:12.800Z,6.87
2018-02-11T18:59:40.874Z,8.93
2018-02-11T19:02:08.977Z,9.53
2018-02-11T19:04:37.110Z,8.00
2018-02-11T19:07:05.221Z,11.00
2018-02-11T19:09:33.278Z,9.67
2018-02-11T19:12:01.338Z,9.53
2018-02-11T19:14:29.389Z,10.33
2018-02-11T19:16:58.259Z,12.35
2018-02-11T19:19:26.333Z,10.65
2018-02-11T19:21:54.405Z,11.73
2018-02-11T19:24:22.461Z,10.90
2018-02-11T19:26:50.547Z,11.90
2018-02-11T19:29:18.618Z,13.10
2018-02-11T19:31:46.785Z,13.30
2018-02-11T19:34:14.891Z,11.48
2018-02-11T19:36:42.962Z,12.23
2018-02-11T19:39:11.030Z,12.07
2018-02-11T19:41:39.095Z,11.50
2018-02-11T19:44:07.173Z,12.23
2018-02-11T19:46:35.269Z,10.57
2018-02-11T19:49:03.346Z,10.80
2018-02-11T19:51:31.401Z,12.80
2018-02-11T19:53:59.489Z,13.13
2018-02-11T19:56:27.565Z,10.67
2018-02-11T19:58:55.650Z,9.90
2018-02-11T20:01:23.713Z,10.13
2018-02-11T20:03:52.312Z,10.38
2018-02-11T20:06:20.485Z,10.17
2018-02-11T20:08:48.562Z,9.57
2018-02-11T20:11:16.638Z,9.90
2018-02-11T20:13:44.713Z,11.73
2018-02-11T20:16:12.897Z,9.87
2018-02-11T20:18:40.957Z,9.00
2018-02-11T20:21:09.023Z,8.87
2018-02-11T20:23:37.093Z,10.63
2018-02-11T20:26:05.202Z,9.83
2018-02-11T20:28:33.266Z,10.60
2018-02-11T20:31:02.901Z,12.87
2018-02-11T20:33:31.784Z,10.10
2018-02-11T20:35:59.845Z,9.53
2018-02-11T20:38:28.038Z,9.80
2018-02-11T20:40:56.318Z,11.03
2018-02-11T20:43:24.373Z,11.37
2018-02-11T20:45:52.681Z,9.48
2018-02-11T20:48:20.738Z,13.00
2018-02-11T20:50:48.809Z,10.00
2018-02-11T20:53:16.883Z,11.60
2018-02-11T20:55:44.942Z,10.40
2018-02-11T20:58:13.001Z,13.47
2018-02-11T21:00:41.829Z,10.70
2018-02-11T21:03:10.120Z,11.60
2018-02-11T21:05:38.213Z,11.30
2018-02-11T21:08:06.281Z,12.90
2018-02-11T21:10:34.395Z,13.87
2018-02-11T21:13:03.320Z,13.00
2018-02-11T21:15:31.436Z,12.40
2018-02-11T21:17:59.525Z,10.00
2018-02-11T21:20:27.698Z,12.50
2018-02-11T21:22:57.231Z,12.30
2018-02-11T21:25:25.293Z,10.17
2018-02-11T21:27:53.385Z,12.23
2018-02-11T21:30:21.525Z,9.63
2018-02-11T21:32:49.613Z,11.63
2018-02-11T21:35:17.678Z,11.83
2018-02-11T21:37:45.765Z,10.00
2018-02-11T21:40:13.827Z,10.17
2018-02-11T21:42:41.873Z,8.90
2018-02-11T21:45:09.971Z,11.18
2018-02-11T21:47:38.025Z,9.33
2018-02-11T21:50:06.142Z,11.10
2018-02-11T21:52:34.213Z,10.10
2018-02-11T21:55:02.302Z,9.15
2018-02-11T21:57:30.982Z,9.00
2018-02-11T21:59:59.058Z,8.52
2018-02-11T22:02:28.264Z,8.47
2018-02-11T22:04:56.339Z,9.77
2018-02-11T22:07:24.404Z,8.43
2018-02-11T22:09:53.578Z,9.10
2018-02-11T22:12:21.760Z,8.40
2018-02-11T22:14:49.796Z,7.05
2018-02-11T22:17:17.861Z,7.57
2018-02-11T22:19:46.022Z,8.13
2018-02-11T22:22:14.107Z,7.60
2018-02-11T22:24:42.153Z,7.63
2018-02-11T22:27:10.226Z,7.35
2018-02-11T22:29:38.278Z,7.97
2018-02-11T22:32:08.249Z,5.13
2018-02-11T22:34:37.422Z,5.87
2018-02-11T22:37:05.520Z,5.82
2018-02-11T22:39:33.578Z,6.18
2018-02-11T22:42:01.647Z,5.70
2018-02-11T22:44:29.701Z,5.63
2018-02-11T22:46:57.776Z,4.73
2018-02-11T22:49:26.621Z,4.97
2018-02-11T22:51:54.685Z,4.43
2018-02-11T22:54:22.766Z,5.03
2018-02-11T22:56:50.818Z,4.23
2018-02-11T22:59:18.894Z,4.60
2018-02-11T23:01:46.934Z,4.23
2018-02-11T23:04:15.800Z,5.00
2018-02-11T23:06:43.856Z,4.65
2018-02-11T23:09:11.949Z,4.80
2018-02-11T23:11:40.020Z,4.43
2018-02-11T23:14:09.713Z,4.87
2018-02-11T23:16:39.762Z,4.73
2018-02-11T23:19:08.948Z,5.17
2018-02-11T23:21:37.814Z,5.55
2018-02-11T23:24:05.929Z,6.17
2018-02-11T23:26:33.984Z,5.60
2018-02-11T23:29:02.050Z,5.33
2018-02-11T23:31:30.093Z,6.30
2018-02-11T23:33:58.921Z,6.37
2018-02-11T23:36:26.986Z,6.40
2018-02-11T23:38:55.098Z,6.00
2018-02-11T23:41:23.147Z,6.67
2018-02-11T23:43:51.274Z,6.23
2018-02-11T23:46:19.318Z,6.67
2018-02-11T23:48:47.412Z,5.53
2018-02-11T23:51:15.523Z,6.10
2018-02-11T23:53:43.653Z,5.37
2018-02-11T23:56:11.778Z,6.03
2018-02-11T23:58:39.830Z,6.37
